sensor_id;sensor_type;location;lat;lon;timestamp;pressure;altitude;pressure_sealevel;temperature;humidity
41230;BME280;26964;50.428;19.218;2023-02-17T00:04:52;1024.8;;;-1.1;78.2
41230;BME280;26964;50.428;19.218;2023-02-17T00:09:52;1024.7;;;-1.0;78.3
41230;BME280;26964;50.428;19.218;2023-02-17T00:14:52;1024.8;;;-1.0;78.3
41230;BME280;26964;50.428;19.218;2023-02-17T00:19:52;1024.7;;;-0.9;78.4
41230;BME280;26964;50.428;19.218;2023-02-17T00:24:52;1024.6;;;-0.9;78.4
41230;BME280;26964;50.428;19.218;2023-02-17T00:29:52;1024.6;;;-0.9;78.5
41230;BME280;26964;50.428;19.218;2023-02-17T00:34:52;1024.6;;;-0.8;78.5
41230;BME280;26964;50.428;19.218;2023-02-17T00:39:52;1024.5;;;-0.8;78.5
41230;BME280;26964;50.428;19.218;2023-02-17T00:44:52;1024.5;;;-0.7;78.5
41230;BME280;26964;50.428;19.218;2023-02-17T00:49:52;1024.4;;;-0.7;78.5
41230;BME280;26964;50.428;19.218;2023-02-17T00:54:52;1024.5;;;-0.7;78.5
41230;BME280;26964;50.428;19.218;2023-02-17T00:59:52;1024.4;;;-0.7;78.6
41230;BME280;26964;50.428;19.218;2023-02-17T01:04:52;1024.3;;;-0.7;78.6
41230;BME280;26964;50.428;19.218;2023-02-17T01:09:52;1024.4;;;-0.7;78.6
41230;BME280;26964;50.428;19.218;2023-02-17T01:14:52;1024.2;;;-0.7;78.6
41230;BME280;26964;50.428;19.218;2023-02-17T01:19:52;1024.0;;;-0.7;78.6
41230;BME280;26964;50.428;19.218;2023-02-17T01:24:52;1024.0;;;-0.7;78.7
41230;BME280;26964;50.428;19.218;2023-02-17T01:29:52;1024.1;;;-0.7;78.7
41230;BME280;26964;50.428;19.218;2023-02-17T01:34:52;1024.2;;;-0.7;78.7
41230;BME280;26964;50.428;19.218;2023-02-17T01:39:52;1024.3;;;-0.7;78.8
41230;BME280;26964;50.428;19.218;2023-02-17T01:49:52;1024.2;;;-0.8;78.8
41230;BME280;26964;50.428;19.218;2023-02-17T01:54:56;1024.1;;;-0.8;78.8
41230;BME280;26964;50.428;19.218;2023-02-17T01:59:52;1024.1;;;-0.8;78.8
41230;BME280;26964;50.428;19.218;2023-02-17T02:04:52;1024.1;;;-0.9;78.8
41230;BME280;26964;50.428;19.218;2023-02-17T02:09:54;1024.1;;;-0.9;78.9
41230;BME280;26964;50.428;19.218;2023-02-17T02:14:54;1024.0;;;-0.9;79.0
41230;BME280;26964;50.428;19.218;2023-02-17T02:24:57;1023.9;;;-0.9;78.9
41230;BME280;26964;50.428;19.218;2023-02-17T02:34:56;1023.8;;;-0.9;79.1
41230;BME280;26964;50.428;19.218;2023-02-17T02:39:52;1023.8;;;-0.9;79.1
41230;BME280;26964;50.428;19.218;2023-02-17T02:44:52;1023.8;;;-0.9;79.1
41230;BME280;26964;50.428;19.218;2023-02-17T02:49:52;1023.9;;;-0.9;79.2
41230;BME280;26964;50.428;19.218;2023-02-17T02:54:56;1023.8;;;-0.9;79.3
41230;BME280;26964;50.428;19.218;2023-02-17T03:04:56;1023.7;;;-0.8;79.3
41230;BME280;26964;50.428;19.218;2023-02-17T03:09:53;1023.5;;;-0.8;79.4
41230;BME280;26964;50.428;19.218;2023-02-17T03:14:54;1023.5;;;-0.7;79.4
41230;BME280;26964;50.428;19.218;2023-02-17T03:19:51;1023.5;;;-0.7;79.4
41230;BME280;26964;50.428;19.218;2023-02-17T03:24:52;1023.5;;;-0.7;79.5
41230;BME280;26964;50.428;19.218;2023-02-17T03:29:52;1023.5;;;-0.6;79.5
41230;BME280;26964;50.428;19.218;2023-02-17T03:34:51;1023.4;;;-0.6;79.5
41230;BME280;26964;50.428;19.218;2023-02-17T03:39:51;1023.5;;;-0.6;79.5
41230;BME280;26964;50.428;19.218;2023-02-17T03:44:51;1023.5;;;-0.6;79.5
41230;BME280;26964;50.428;19.218;2023-02-17T03:49:51;1023.4;;;-0.5;79.5
41230;BME280;26964;50.428;19.218;2023-02-17T03:54:51;1023.4;;;-0.5;79.6
41230;BME280;26964;50.428;19.218;2023-02-17T03:59:51;1023.4;;;-0.5;79.6
41230;BME280;26964;50.428;19.218;2023-02-17T04:04:51;1023.4;;;-0.4;79.6
41230;BME280;26964;50.428;19.218;2023-02-17T04:09:51;1023.3;;;-0.4;79.7
41230;BME280;26964;50.428;19.218;2023-02-17T04:14:52;1023.3;;;-0.4;79.8
41230;BME280;26964;50.428;19.218;2023-02-17T04:19:52;1023.3;;;-0.3;79.8
41230;BME280;26964;50.428;19.218;2023-02-17T04:24:52;1023.2;;;-0.3;79.8
41230;BME280;26964;50.428;19.218;2023-02-17T04:29:51;1023.2;;;-0.2;79.8
41230;BME280;26964;50.428;19.218;2023-02-17T04:34:51;1023.2;;;-0.2;79.8
41230;BME280;26964;50.428;19.218;2023-02-17T04:39:52;1023.2;;;-0.1;79.9
41230;BME280;26964;50.428;19.218;2023-02-17T04:44:52;1023.2;;;-0.1;79.9
41230;BME280;26964;50.428;19.218;2023-02-17T04:49:51;1023.0;;;-0.1;79.9
41230;BME280;26964;50.428;19.218;2023-02-17T04:54:51;1023.1;;;-0.0;79.9
41230;BME280;26964;50.428;19.218;2023-02-17T04:59:52;1023.0;;;0.0;80.0
41230;BME280;26964;50.428;19.218;2023-02-17T05:04:52;1022.8;;;0.1;80.0
41230;BME280;26964;50.428;19.218;2023-02-17T05:09:51;1022.9;;;0.2;80.1
41230;BME280;26964;50.428;19.218;2023-02-17T05:14:52;1022.8;;;0.2;80.1
41230;BME280;26964;50.428;19.218;2023-02-17T05:19:51;1022.8;;;0.2;80.1
41230;BME280;26964;50.428;19.218;2023-02-17T05:24:52;1022.8;;;0.3;80.1
41230;BME280;26964;50.428;19.218;2023-02-17T05:29:51;1022.8;;;0.3;80.1
41230;BME280;26964;50.428;19.218;2023-02-17T05:34:51;1022.7;;;0.4;80.1
41230;BME280;26964;50.428;19.218;2023-02-17T05:39:52;1022.8;;;0.4;80.1
41230;BME280;26964;50.428;19.218;2023-02-17T05:44:50;1022.8;;;0.5;80.2
41230;BME280;26964;50.428;19.218;2023-02-17T05:49:51;1022.8;;;0.5;80.2
41230;BME280;26964;50.428;19.218;2023-02-17T05:54:50;1022.7;;;0.5;80.2
41230;BME280;26964;50.428;19.218;2023-02-17T05:59:52;1022.6;;;0.6;80.2
41230;BME280;26964;50.428;19.218;2023-02-17T06:04:51;1022.6;;;0.6;80.2
41230;BME280;26964;50.428;19.218;2023-02-17T06:09:51;1022.5;;;0.6;80.3
41230;BME280;26964;50.428;19.218;2023-02-17T06:14:51;1022.6;;;0.7;80.4
41230;BME280;26964;50.428;19.218;2023-02-17T06:19:51;1022.6;;;0.7;80.4
41230;BME280;26964;50.428;19.218;2023-02-17T06:24:51;1022.5;;;0.8;80.4
41230;BME280;26964;50.428;19.218;2023-02-17T06:29:51;1022.5;;;0.8;80.5
41230;BME280;26964;50.428;19.218;2023-02-17T06:34:50;1022.5;;;0.9;80.5
41230;BME280;26964;50.428;19.218;2023-02-17T06:39:52;1022.5;;;1.0;80.5
41230;BME280;26964;50.428;19.218;2023-02-17T06:44:51;1022.6;;;1.0;80.6
41230;BME280;26964;50.428;19.218;2023-02-17T06:49:50;1022.5;;;1.1;80.6
41230;BME280;26964;50.428;19.218;2023-02-17T06:54:51;1022.5;;;1.2;80.6
41230;BME280;26964;50.428;19.218;2023-02-17T06:59:51;1022.4;;;1.3;80.6
41230;BME280;26964;50.428;19.218;2023-02-17T07:04:51;1022.4;;;1.4;80.6
41230;BME280;26964;50.428;19.218;2023-02-17T07:09:51;1022.4;;;1.5;80.6
41230;BME280;26964;50.428;19.218;2023-02-17T07:14:51;1022.2;;;1.6;80.7
41230;BME280;26964;50.428;19.218;2023-02-17T07:19:51;1022.4;;;1.7;80.7
41230;BME280;26964;50.428;19.218;2023-02-17T07:24:51;1022.5;;;1.8;80.7
41230;BME280;26964;50.428;19.218;2023-02-17T07:29:51;1022.5;;;1.9;80.8
41230;BME280;26964;50.428;19.218;2023-02-17T07:34:50;1022.5;;;2.0;80.8
41230;BME280;26964;50.428;19.218;2023-02-17T07:39:51;1022.2;;;2.2;80.9
41230;BME280;26964;50.428;19.218;2023-02-17T07:44:50;1022.0;;;2.3;80.9
41230;BME280;26964;50.428;19.218;2023-02-17T07:49:50;1022.1;;;2.4;80.9
41230;BME280;26964;50.428;19.218;2023-02-17T07:54:51;1022.2;;;2.5;80.8
41230;BME280;26964;50.428;19.218;2023-02-17T07:59:51;1022.1;;;2.7;80.8
41230;BME280;26964;50.428;19.218;2023-02-17T08:04:51;1022.0;;;2.8;80.8
41230;BME280;26964;50.428;19.218;2023-02-17T08:09:51;1022.0;;;2.9;80.8
41230;BME280;26964;50.428;19.218;2023-02-17T08:14:51;1021.8;;;3.0;80.8
41230;BME280;26964;50.428;19.218;2023-02-17T08:19:51;1021.9;;;3.1;80.8
41230;BME280;26964;50.428;19.218;2023-02-17T08:24:50;1021.9;;;3.2;80.8
41230;BME280;26964;50.428;19.218;2023-02-17T08:29:51;1021.9;;;3.3;80.7
41230;BME280;26964;50.428;19.218;2023-02-17T08:34:54;1021.9;;;3.3;80.7
41230;BME280;26964;50.428;19.218;2023-02-17T08:39:50;1022.0;;;3.4;80.8
41230;BME280;26964;50.428;19.218;2023-02-17T08:44:51;1021.9;;;3.5;80.8
41230;BME280;26964;50.428;19.218;2023-02-17T08:49:50;1021.9;;;3.6;80.8
41230;BME280;26964;50.428;19.218;2023-02-17T08:54:51;1021.7;;;3.7;80.9
41230;BME280;26964;50.428;19.218;2023-02-17T08:59:50;1021.8;;;3.8;80.8
41230;BME280;26964;50.428;19.218;2023-02-17T09:04:51;1021.7;;;4.0;80.9
41230;BME280;26964;50.428;19.218;2023-02-17T09:09:51;1021.7;;;4.1;80.9
41230;BME280;26964;50.428;19.218;2023-02-17T09:14:50;1021.7;;;4.1;80.8
41230;BME280;26964;50.428;19.218;2023-02-17T09:19:50;1021.5;;;4.2;80.9
41230;BME280;26964;50.428;19.218;2023-02-17T09:24:51;1021.5;;;4.3;80.9
41230;BME280;26964;50.428;19.218;2023-02-17T09:29:50;1021.6;;;4.4;80.9
41230;BME280;26964;50.428;19.218;2023-02-17T09:34:51;1021.5;;;4.5;80.8
41230;BME280;26964;50.428;19.218;2023-02-17T09:39:51;1021.5;;;4.6;80.7
41230;BME280;26964;50.428;19.218;2023-02-17T09:44:54;1021.5;;;4.7;80.7
41230;BME280;26964;50.428;19.218;2023-02-17T09:49:56;1021.5;;;4.8;80.6
41230;BME280;26964;50.428;19.218;2023-02-17T09:59:54;1021.6;;;4.8;80.5
41230;BME280;26964;50.428;19.218;2023-02-17T10:04:51;1021.5;;;4.9;80.3
41230;BME280;26964;50.428;19.218;2023-02-17T10:09:54;1021.5;;;4.9;80.3
41230;BME280;26964;50.428;19.218;2023-02-17T10:14:54;1021.4;;;4.9;80.4
41230;BME280;26964;50.428;19.218;2023-02-17T10:19:55;1021.4;;;5.0;80.3
41230;BME280;26964;50.428;19.218;2023-02-17T10:24:50;1021.3;;;5.0;80.3
41230;BME280;26964;50.428;19.218;2023-02-17T10:29:57;1021.3;;;5.0;80.3
41230;BME280;26964;50.428;19.218;2023-02-17T10:39:52;1021.1;;;5.0;80.4
41230;BME280;26964;50.428;19.218;2023-02-17T10:44:51;1021.0;;;4.9;80.4
41230;BME280;26964;50.428;19.218;2023-02-17T10:49:52;1020.9;;;4.9;80.4
41230;BME280;26964;50.428;19.218;2023-02-17T10:54:56;1020.8;;;4.8;80.5
41230;BME280;26964;50.428;19.218;2023-02-17T10:59:51;1020.7;;;4.8;80.5
41230;BME280;26964;50.428;19.218;2023-02-17T11:04:52;1020.5;;;4.8;80.6
41230;BME280;26964;50.428;19.218;2023-02-17T11:09:53;1020.3;;;4.9;80.6
41230;BME280;26964;50.428;19.218;2023-02-17T11:14:53;1020.1;;;5.1;80.7
41230;BME280;26964;50.428;19.218;2023-02-17T11:19:53;1020.2;;;5.3;80.7
41230;BME280;26964;50.428;19.218;2023-02-17T11:29:51;1020.1;;;5.5;80.3
41230;BME280;26964;50.428;19.218;2023-02-17T11:34:55;1020.0;;;5.5;80.2
41230;BME280;26964;50.428;19.218;2023-02-17T11:39:52;1019.8;;;5.5;80.4
41230;BME280;26964;50.428;19.218;2023-02-17T11:44:51;1019.9;;;5.5;80.2
41230;BME280;26964;50.428;19.218;2023-02-17T12:09:55;1019.7;;;5.4;80.1
41230;BME280;26964;50.428;19.218;2023-02-17T12:19:55;1019.6;;;5.4;80.0
41230;BME280;26964;50.428;19.218;2023-02-17T12:24:55;1019.6;;;5.4;80.0
41230;BME280;26964;50.428;19.218;2023-02-17T12:34:54;1019.5;;;5.4;80.1
41230;BME280;26964;50.428;19.218;2023-02-17T12:39:52;1019.4;;;5.4;80.1
41230;BME280;26964;50.428;19.218;2023-02-17T12:44:55;1019.3;;;5.4;80.1
41230;BME280;26964;50.428;19.218;2023-02-17T12:49:54;1019.3;;;5.4;80.0
41230;BME280;26964;50.428;19.218;2023-02-17T12:54:53;1019.2;;;5.4;80.1
41230;BME280;26964;50.428;19.218;2023-02-17T12:59:51;1019.2;;;5.4;80.1
41230;BME280;26964;50.428;19.218;2023-02-17T13:04:51;1019.0;;;5.4;80.2
41230;BME280;26964;50.428;19.218;2023-02-17T13:09:53;1019.0;;;5.4;80.2
41230;BME280;26964;50.428;19.218;2023-02-17T13:14:51;1018.8;;;5.4;80.2
41230;BME280;26964;50.428;19.218;2023-02-17T13:24:51;1018.6;;;5.4;80.3
41230;BME280;26964;50.428;19.218;2023-02-17T13:39:50;1018.1;;;5.6;80.3
41230;BME280;26964;50.428;19.218;2023-02-17T13:44:50;1017.9;;;5.7;80.2
41230;BME280;26964;50.428;19.218;2023-02-17T13:49:51;1017.9;;;5.7;80.2
41230;BME280;26964;50.428;19.218;2023-02-17T13:54:51;1017.9;;;5.8;80.2
41230;BME280;26964;50.428;19.218;2023-02-17T13:59:51;1017.8;;;5.8;80.2
41230;BME280;26964;50.428;19.218;2023-02-17T14:04:50;1017.8;;;5.8;80.2
41230;BME280;26964;50.428;19.218;2023-02-17T14:09:52;1017.6;;;5.8;80.1
41230;BME280;26964;50.428;19.218;2023-02-17T14:14:50;1017.7;;;5.9;80.2
41230;BME280;26964;50.428;19.218;2023-02-17T14:19:51;1017.7;;;5.9;80.2
41230;BME280;26964;50.428;19.218;2023-02-17T14:29:51;1017.4;;;6.0;80.1
41230;BME280;26964;50.428;19.218;2023-02-17T14:34:50;1017.4;;;5.9;80.2
41230;BME280;26964;50.428;19.218;2023-02-17T14:39:50;1017.4;;;5.9;80.2
41230;BME280;26964;50.428;19.218;2023-02-17T14:44:50;1017.3;;;5.8;80.3
41230;BME280;26964;50.428;19.218;2023-02-17T14:49:52;1017.2;;;5.8;80.4
41230;BME280;26964;50.428;19.218;2023-02-17T14:54:50;1017.1;;;5.7;80.6
41230;BME280;26964;50.428;19.218;2023-02-17T14:59:50;1017.1;;;5.7;80.7
41230;BME280;26964;50.428;19.218;2023-02-17T15:04:50;1016.9;;;5.7;80.7
41230;BME280;26964;50.428;19.218;2023-02-17T15:09:51;1016.9;;;5.6;80.9
41230;BME280;26964;50.428;19.218;2023-02-17T15:14:50;1016.8;;;5.6;80.9
41230;BME280;26964;50.428;19.218;2023-02-17T15:19:50;1016.7;;;5.6;81.0
41230;BME280;26964;50.428;19.218;2023-02-17T15:24:49;1016.6;;;5.6;81.2
41230;BME280;26964;50.428;19.218;2023-02-17T15:29:50;1016.5;;;5.6;81.1
41230;BME280;26964;50.428;19.218;2023-02-17T15:34:49;1016.3;;;5.6;81.3
41230;BME280;26964;50.428;19.218;2023-02-17T15:39:50;1016.3;;;5.6;81.2
41230;BME280;26964;50.428;19.218;2023-02-17T15:44:50;1016.2;;;5.6;81.3
41230;BME280;26964;50.428;19.218;2023-02-17T15:49:50;1016.2;;;5.7;81.3
41230;BME280;26964;50.428;19.218;2023-02-17T15:54:50;1016.1;;;5.7;81.3
41230;BME280;26964;50.428;19.218;2023-02-17T15:59:50;1016.0;;;5.7;81.3
41230;BME280;26964;50.428;19.218;2023-02-17T16:04:50;1015.9;;;5.7;81.4
41230;BME280;26964;50.428;19.218;2023-02-17T16:09:50;1016.0;;;5.8;81.4
41230;BME280;26964;50.428;19.218;2023-02-17T16:14:49;1015.9;;;5.8;81.4
41230;BME280;26964;50.428;19.218;2023-02-17T16:19:50;1015.9;;;5.9;81.5
41230;BME280;26964;50.428;19.218;2023-02-17T16:24:50;1015.9;;;5.9;81.4
41230;BME280;26964;50.428;19.218;2023-02-17T16:29:49;1015.7;;;5.9;81.5
41230;BME280;26964;50.428;19.218;2023-02-17T16:34:50;1015.4;;;5.9;81.5
41230;BME280;26964;50.428;19.218;2023-02-17T16:39:50;1015.4;;;6.0;81.7
41230;BME280;26964;50.428;19.218;2023-02-17T16:44:49;1015.5;;;6.0;81.6
41230;BME280;26964;50.428;19.218;2023-02-17T16:54:49;1015.2;;;6.1;81.6
41230;BME280;26964;50.428;19.218;2023-02-17T16:59:50;1015.1;;;6.2;81.6
41230;BME280;26964;50.428;19.218;2023-02-17T17:04:49;1015.0;;;6.2;81.7
41230;BME280;26964;50.428;19.218;2023-02-17T17:09:50;1015.0;;;6.3;81.7
41230;BME280;26964;50.428;19.218;2023-02-17T17:14:50;1014.9;;;6.4;81.6
41230;BME280;26964;50.428;19.218;2023-02-17T17:19:49;1014.8;;;6.4;81.6
41230;BME280;26964;50.428;19.218;2023-02-17T17:24:50;1014.9;;;6.5;81.6
41230;BME280;26964;50.428;19.218;2023-02-17T17:29:50;1015.0;;;6.6;81.5
41230;BME280;26964;50.428;19.218;2023-02-17T17:34:49;1015.1;;;6.7;81.5
41230;BME280;26964;50.428;19.218;2023-02-17T17:39:50;1015.1;;;6.7;81.4
41230;BME280;26964;50.428;19.218;2023-02-17T17:44:49;1015.0;;;6.7;81.5
41230;BME280;26964;50.428;19.218;2023-02-17T17:49:50;1015.0;;;6.8;81.5
41230;BME280;26964;50.428;19.218;2023-02-17T17:54:49;1014.9;;;6.7;81.5
41230;BME280;26964;50.428;19.218;2023-02-17T17:59:50;1014.8;;;6.7;81.5
41230;BME280;26964;50.428;19.218;2023-02-17T18:04:49;1014.9;;;6.7;81.7
41230;BME280;26964;50.428;19.218;2023-02-17T18:09:49;1014.8;;;6.6;81.9
41230;BME280;26964;50.428;19.218;2023-02-17T18:14:51;1014.8;;;6.6;82.0
41230;BME280;26964;50.428;19.218;2023-02-17T18:19:50;1014.8;;;6.6;82.1
41230;BME280;26964;50.428;19.218;2023-02-17T18:24:50;1014.6;;;6.6;82.1
41230;BME280;26964;50.428;19.218;2023-02-17T18:29:53;1014.6;;;6.6;82.1
41230;BME280;26964;50.428;19.218;2023-02-17T18:34:49;1014.7;;;6.6;82.0
41230;BME280;26964;50.428;19.218;2023-02-17T18:39:50;1014.7;;;6.6;82.2
41230;BME280;26964;50.428;19.218;2023-02-17T18:44:50;1014.8;;;6.7;82.3
41230;BME280;26964;50.428;19.218;2023-02-17T18:49:50;1014.7;;;6.7;82.3
41230;BME280;26964;50.428;19.218;2023-02-17T18:54:50;1014.9;;;6.7;82.3
41230;BME280;26964;50.428;19.218;2023-02-17T18:59:50;1014.8;;;6.8;82.3
41230;BME280;26964;50.428;19.218;2023-02-17T19:04:51;1014.8;;;6.8;82.4
41230;BME280;26964;50.428;19.218;2023-02-17T19:09:50;1014.8;;;6.8;82.4
41230;BME280;26964;50.428;19.218;2023-02-17T19:14:50;1014.7;;;6.8;82.5
41230;BME280;26964;50.428;19.218;2023-02-17T19:19:50;1014.6;;;6.8;82.6
41230;BME280;26964;50.428;19.218;2023-02-17T19:24:51;1014.7;;;6.8;82.7
41230;BME280;26964;50.428;19.218;2023-02-17T19:29:50;1014.6;;;6.7;82.8
41230;BME280;26964;50.428;19.218;2023-02-17T19:34:49;1014.7;;;6.7;83.0
41230;BME280;26964;50.428;19.218;2023-02-17T19:39:49;1014.7;;;6.7;83.2
41230;BME280;26964;50.428;19.218;2023-02-17T19:44:50;1014.8;;;6.8;83.0
41230;BME280;26964;50.428;19.218;2023-02-17T19:49:50;1014.8;;;6.8;83.1
41230;BME280;26964;50.428;19.218;2023-02-17T19:54:49;1014.7;;;6.8;83.3
41230;BME280;26964;50.428;19.218;2023-02-17T19:59:49;1014.8;;;6.8;83.2
41230;BME280;26964;50.428;19.218;2023-02-17T20:04:50;1014.8;;;6.8;83.3
41230;BME280;26964;50.428;19.218;2023-02-17T20:09:49;1014.7;;;6.8;83.6
41230;BME280;26964;50.428;19.218;2023-02-17T20:14:51;1014.6;;;6.8;83.5
41230;BME280;26964;50.428;19.218;2023-02-17T20:19:53;1014.6;;;6.9;83.4
41230;BME280;26964;50.428;19.218;2023-02-17T20:24:50;1014.7;;;6.8;83.3
41230;BME280;26964;50.428;19.218;2023-02-17T20:29:50;1014.6;;;6.9;83.5
41230;BME280;26964;50.428;19.218;2023-02-17T20:34:50;1014.5;;;6.9;83.4
41230;BME280;26964;50.428;19.218;2023-02-17T20:39:49;1014.6;;;6.9;83.5
41230;BME280;26964;50.428;19.218;2023-02-17T20:44:49;1014.4;;;7.0;83.5
41230;BME280;26964;50.428;19.218;2023-02-17T20:49:50;1014.5;;;7.0;83.5
41230;BME280;26964;50.428;19.218;2023-02-17T20:54:50;1014.4;;;7.1;83.6
41230;BME280;26964;50.428;19.218;2023-02-17T20:59:49;1014.4;;;7.1;83.5
41230;BME280;26964;50.428;19.218;2023-02-17T21:04:50;1014.5;;;7.1;83.7
41230;BME280;26964;50.428;19.218;2023-02-17T21:09:50;1014.4;;;7.1;83.6
41230;BME280;26964;50.428;19.218;2023-02-17T21:14:49;1014.2;;;7.2;83.7
41230;BME280;26964;50.428;19.218;2023-02-17T21:19:50;1014.3;;;7.2;83.7
41230;BME280;26964;50.428;19.218;2023-02-17T21:24:50;1014.4;;;7.2;83.6
41230;BME280;26964;50.428;19.218;2023-02-17T21:29:49;1014.6;;;7.2;83.6
41230;BME280;26964;50.428;19.218;2023-02-17T21:34:50;1014.6;;;7.3;83.6
41230;BME280;26964;50.428;19.218;2023-02-17T21:39:50;1014.6;;;7.3;83.7
41230;BME280;26964;50.428;19.218;2023-02-17T21:44:50;1014.6;;;7.3;83.7
41230;BME280;26964;50.428;19.218;2023-02-17T21:49:51;1014.5;;;7.3;83.7
41230;BME280;26964;50.428;19.218;2023-02-17T21:54:49;1014.7;;;7.4;83.8
41230;BME280;26964;50.428;19.218;2023-02-17T21:59:49;1014.7;;;7.4;83.8
41230;BME280;26964;50.428;19.218;2023-02-17T22:04:53;1014.8;;;7.4;83.9
41230;BME280;26964;50.428;19.218;2023-02-17T22:09:49;1014.9;;;7.4;83.8
41230;BME280;26964;50.428;19.218;2023-02-17T22:14:49;1014.7;;;7.4;83.8
41230;BME280;26964;50.428;19.218;2023-02-17T22:19:50;1014.5;;;7.4;83.8
41230;BME280;26964;50.428;19.218;2023-02-17T22:24:50;1014.5;;;7.3;83.8
41230;BME280;26964;50.428;19.218;2023-02-17T22:29:49;1014.3;;;7.3;84.0
41230;BME280;26964;50.428;19.218;2023-02-17T22:34:50;1014.2;;;7.3;84.1
41230;BME280;26964;50.428;19.218;2023-02-17T22:39:51;1014.4;;;7.4;84.1
41230;BME280;26964;50.428;19.218;2023-02-17T22:44:49;1014.3;;;7.4;84.2
41230;BME280;26964;50.428;19.218;2023-02-17T22:49:50;1014.3;;;7.5;84.3
41230;BME280;26964;50.428;19.218;2023-02-17T22:54:50;1014.3;;;7.5;84.3
41230;BME280;26964;50.428;19.218;2023-02-17T22:59:49;1014.3;;;7.6;84.5
41230;BME280;26964;50.428;19.218;2023-02-17T23:04:50;1014.5;;;7.8;84.4
41230;BME280;26964;50.428;19.218;2023-02-17T23:09:50;1014.4;;;7.9;84.3
41230;BME280;26964;50.428;19.218;2023-02-17T23:14:49;1014.5;;;8.0;84.3
41230;BME280;26964;50.428;19.218;2023-02-17T23:19:50;1014.4;;;8.1;84.1
41230;BME280;26964;50.428;19.218;2023-02-17T23:24:50;1014.7;;;8.1;84.1
41230;BME280;26964;50.428;19.218;2023-02-17T23:29:49;1014.5;;;8.1;84.0
41230;BME280;26964;50.428;19.218;2023-02-17T23:34:50;1014.5;;;8.1;84.0
41230;BME280;26964;50.428;19.218;2023-02-17T23:39:50;1014.4;;;8.1;84.0
41230;BME280;26964;50.428;19.218;2023-02-17T23:44:49;1014.5;;;8.1;84.1
41230;BME280;26964;50.428;19.218;2023-02-17T23:49:49;1014.4;;;8.2;84.1
41230;BME280;26964;50.428;19.218;2023-02-17T23:54:49;1014.5;;;8.2;84.1
41230;BME280;26964;50.428;19.218;2023-02-17T23:59:49;1014.4;;;8.1;84.0
